sensor_id;sensor_type;location;lat;lon;timestamp;P1;durP1;ratioP1;P2;durP2;ratioP2
19235;SDS011;9752;54.270;12.470;2023-01-30T00:03:22;92.47;;;47.60;;
19235;SDS011;9752;54.270;12.470;2023-01-30T00:08:24;84.60;;;44.33;;
19235;SDS011;9752;54.270;12.470;2023-01-30T00:13:27;85.87;;;47.63;;
19235;SDS011;9752;54.270;12.470;2023-01-30T00:18:29;94.07;;;47.47;;
19235;SDS011;9752;54.270;12.470;2023-01-30T00:23:32;73.93;;;43.33;;
19235;SDS011;9752;54.270;12.470;2023-01-30T00:28:36;77.87;;;44.90;;
19235;SDS011;9752;54.270;12.470;2023-01-30T00:33:38;74.07;;;41.87;;
19235;SDS011;9752;54.270;12.470;2023-01-30T00:38:40;75.10;;;43.03;;
19235;SDS011;9752;54.270;12.470;2023-01-30T00:43:43;69.90;;;36.70;;
19235;SDS011;9752;54.270;12.470;2023-01-30T00:49:02;77.13;;;40.43;;
19235;SDS011;9752;54.270;12.470;2023-01-30T00:54:04;62.37;;;36.87;;
19235;SDS011;9752;54.270;12.470;2023-01-30T00:59:07;64.57;;;40.27;;
19235;SDS011;9752;54.270;12.470;2023-01-30T01:04:08;68.07;;;39.17;;
19235;SDS011;9752;54.270;12.470;2023-01-30T01:09:11;65.97;;;39.13;;
19235;SDS011;9752;54.270;12.470;2023-01-30T01:14:15;60.90;;;38.67;;
19235;SDS011;9752;54.270;12.470;2023-01-30T01:19:16;58.90;;;36.17;;
19235;SDS011;9752;54.270;12.470;2023-01-30T01:24:18;63.17;;;37.00;;
19235;SDS011;9752;54.270;12.470;2023-01-30T01:29:21;53.10;;;33.57;;
19235;SDS011;9752;54.270;12.470;2023-01-30T01:34:24;60.77;;;36.97;;
19235;SDS011;9752;54.270;12.470;2023-01-30T01:39:26;57.53;;;34.77;;
19235;SDS011;9752;54.270;12.470;2023-01-30T01:45:01;61.33;;;35.87;;
19235;SDS011;9752;54.270;12.470;2023-01-30T01:50:14;61.77;;;36.87;;
19235;SDS011;9752;54.270;12.470;2023-01-30T01:55:19;60.10;;;34.93;;
19235;SDS011;9752;54.270;12.470;2023-01-30T02:00:24;55.87;;;34.73;;
19235;SDS011;9752;54.270;12.470;2023-01-30T02:05:29;56.97;;;31.33;;
19235;SDS011;9752;54.270;12.470;2023-01-30T02:10:35;59.40;;;33.60;;
19235;SDS011;9752;54.270;12.470;2023-01-30T02:15:45;56.67;;;32.10;;
19235;SDS011;9752;54.270;12.470;2023-01-30T02:20:52;57.10;;;33.03;;
19235;SDS011;9752;54.270;12.470;2023-01-30T02:26:24;50.63;;;29.80;;
19235;SDS011;9752;54.270;12.470;2023-01-30T02:31:48;56.17;;;31.27;;
19235;SDS011;9752;54.270;12.470;2023-01-30T02:36:58;54.03;;;30.87;;
19235;SDS011;9752;54.270;12.470;2023-01-30T02:42:10;48.63;;;29.53;;
19235;SDS011;9752;54.270;12.470;2023-01-30T02:47:23;54.83;;;30.03;;
19235;SDS011;9752;54.270;12.470;2023-01-30T02:52:28;52.60;;;29.93;;
19235;SDS011;9752;54.270;12.470;2023-01-30T02:57:31;49.03;;;28.83;;
19235;SDS011;9752;54.270;12.470;2023-01-30T03:02:46;53.53;;;29.43;;
19235;SDS011;9752;54.270;12.470;2023-01-30T03:08:14;50.63;;;29.53;;
19235;SDS011;9752;54.270;12.470;2023-01-30T03:13:25;45.77;;;30.63;;
19235;SDS011;9752;54.270;12.470;2023-01-30T03:18:36;49.30;;;28.67;;
19235;SDS011;9752;54.270;12.470;2023-01-30T03:23:42;40.40;;;24.97;;
19235;SDS011;9752;54.270;12.470;2023-01-30T03:28:45;40.00;;;26.60;;
19235;SDS011;9752;54.270;12.470;2023-01-30T03:33:50;44.10;;;27.43;;
19235;SDS011;9752;54.270;12.470;2023-01-30T03:38:52;38.07;;;23.80;;
19235;SDS011;9752;54.270;12.470;2023-01-30T03:43:56;31.23;;;22.30;;
19235;SDS011;9752;54.270;12.470;2023-01-30T03:48:59;29.30;;;19.97;;
19235;SDS011;9752;54.270;12.470;2023-01-30T03:54:01;26.23;;;19.80;;
19235;SDS011;9752;54.270;12.470;2023-01-30T03:59:03;26.60;;;17.90;;
19235;SDS011;9752;54.270;12.470;2023-01-30T04:04:15;24.17;;;17.43;;
19235;SDS011;9752;54.270;12.470;2023-01-30T04:09:17;25.90;;;17.53;;
19235;SDS011;9752;54.270;12.470;2023-01-30T04:14:22;28.10;;;18.73;;
19235;SDS011;9752;54.270;12.470;2023-01-30T04:19:45;20.57;;;15.77;;
19235;SDS011;9752;54.270;12.470;2023-01-30T04:24:47;20.90;;;13.63;;
19235;SDS011;9752;54.270;12.470;2023-01-30T04:29:50;17.50;;;13.80;;
19235;SDS011;9752;54.270;12.470;2023-01-30T04:34:53;23.07;;;12.43;;
19235;SDS011;9752;54.270;12.470;2023-01-30T04:39:55;31.70;;;13.20;;
19235;SDS011;9752;54.270;12.470;2023-01-30T04:45:00;13.43;;;10.03;;
19235;SDS011;9752;54.270;12.470;2023-01-30T04:50:04;18.27;;;8.80;;
19235;SDS011;9752;54.270;12.470;2023-01-30T04:55:07;13.73;;;8.83;;
19235;SDS011;9752;54.270;12.470;2023-01-30T05:00:10;12.07;;;7.37;;
19235;SDS011;9752;54.270;12.470;2023-01-30T05:05:20;16.67;;;7.97;;
19235;SDS011;9752;54.270;12.470;2023-01-30T05:10:22;15.90;;;8.23;;
19235;SDS011;9752;54.270;12.470;2023-01-30T05:15:23;14.90;;;9.47;;
19235;SDS011;9752;54.270;12.470;2023-01-30T05:20:26;13.37;;;8.37;;
19235;SDS011;9752;54.270;12.470;2023-01-30T05:25:28;18.77;;;9.40;;
19235;SDS011;9752;54.270;12.470;2023-01-30T05:30:30;17.43;;;9.90;;
19235;SDS011;9752;54.270;12.470;2023-01-30T05:35:33;15.57;;;7.93;;
19235;SDS011;9752;54.270;12.470;2023-01-30T05:40:34;9.73;;;7.00;;
19235;SDS011;9752;54.270;12.470;2023-01-30T05:45:36;19.20;;;6.47;;
19235;SDS011;9752;54.270;12.470;2023-01-30T05:50:39;18.73;;;5.87;;
19235;SDS011;9752;54.270;12.470;2023-01-30T05:55:41;14.90;;;7.23;;
19235;SDS011;9752;54.270;12.470;2023-01-30T06:00:43;12.37;;;5.93;;
19235;SDS011;9752;54.270;12.470;2023-01-30T06:05:46;15.50;;;6.50;;
19235;SDS011;9752;54.270;12.470;2023-01-30T06:10:48;19.47;;;7.53;;
19235;SDS011;9752;54.270;12.470;2023-01-30T06:15:51;20.87;;;7.37;;
19235;SDS011;9752;54.270;12.470;2023-01-30T06:20:54;21.83;;;8.83;;
19235;SDS011;9752;54.270;12.470;2023-01-30T06:25:56;32.77;;;9.20;;
19235;SDS011;9752;54.270;12.470;2023-01-30T06:30:58;13.57;;;7.60;;
19235;SDS011;9752;54.270;12.470;2023-01-30T06:36:01;23.87;;;9.07;;
19235;SDS011;9752;54.270;12.470;2023-01-30T06:41:03;29.33;;;10.03;;
19235;SDS011;9752;54.270;12.470;2023-01-30T06:46:05;24.43;;;9.17;;
19235;SDS011;9752;54.270;12.470;2023-01-30T06:51:08;24.20;;;10.77;;
19235;SDS011;9752;54.270;12.470;2023-01-30T06:56:10;44.43;;;11.37;;
19235;SDS011;9752;54.270;12.470;2023-01-30T07:01:11;27.33;;;9.83;;
19235;SDS011;9752;54.270;12.470;2023-01-30T07:06:15;21.43;;;8.50;;
19235;SDS011;9752;54.270;12.470;2023-01-30T07:11:17;22.20;;;7.97;;
19235;SDS011;9752;54.270;12.470;2023-01-30T07:16:19;17.37;;;7.57;;
19235;SDS011;9752;54.270;12.470;2023-01-30T07:21:24;21.40;;;8.23;;
19235;SDS011;9752;54.270;12.470;2023-01-30T07:26:26;26.53;;;9.17;;
19235;SDS011;9752;54.270;12.470;2023-01-30T07:31:30;15.10;;;7.27;;
19235;SDS011;9752;54.270;12.470;2023-01-30T07:36:33;16.07;;;6.20;;
19235;SDS011;9752;54.270;12.470;2023-01-30T07:41:34;20.63;;;6.40;;
19235;SDS011;9752;54.270;12.470;2023-01-30T07:46:36;10.03;;;6.07;;
19235;SDS011;9752;54.270;12.470;2023-01-30T07:51:39;12.23;;;6.27;;
19235;SDS011;9752;54.270;12.470;2023-01-30T07:56:41;10.67;;;6.90;;
19235;SDS011;9752;54.270;12.470;2023-01-30T08:01:43;25.07;;;8.67;;
19235;SDS011;9752;54.270;12.470;2023-01-30T08:06:46;17.37;;;8.10;;
19235;SDS011;9752;54.270;12.470;2023-01-30T08:11:49;18.60;;;7.40;;
19235;SDS011;9752;54.270;12.470;2023-01-30T08:16:50;10.07;;;7.37;;
19235;SDS011;9752;54.270;12.470;2023-01-30T08:21:53;13.83;;;8.07;;
19235;SDS011;9752;54.270;12.470;2023-01-30T08:26:55;13.97;;;8.03;;
19235;SDS011;9752;54.270;12.470;2023-01-30T08:31:57;24.57;;;12.97;;
19235;SDS011;9752;54.270;12.470;2023-01-30T08:37:00;16.57;;;8.97;;
19235;SDS011;9752;54.270;12.470;2023-01-30T08:42:02;19.93;;;7.83;;
19235;SDS011;9752;54.270;12.470;2023-01-30T08:47:04;17.60;;;8.73;;
19235;SDS011;9752;54.270;12.470;2023-01-30T08:52:07;12.83;;;5.83;;
19235;SDS011;9752;54.270;12.470;2023-01-30T08:57:10;9.40;;;5.37;;
19235;SDS011;9752;54.270;12.470;2023-01-30T09:02:11;11.80;;;5.77;;
19235;SDS011;9752;54.270;12.470;2023-01-30T09:07:15;12.60;;;5.17;;
19235;SDS011;9752;54.270;12.470;2023-01-30T09:12:16;10.63;;;5.90;;
19235;SDS011;9752;54.270;12.470;2023-01-30T09:17:18;10.93;;;5.30;;
19235;SDS011;9752;54.270;12.470;2023-01-30T09:22:21;10.53;;;5.70;;
19235;SDS011;9752;54.270;12.470;2023-01-30T09:27:23;10.17;;;5.07;;
19235;SDS011;9752;54.270;12.470;2023-01-30T09:32:25;14.00;;;4.97;;
19235;SDS011;9752;54.270;12.470;2023-01-30T09:37:28;6.10;;;5.50;;
19235;SDS011;9752;54.270;12.470;2023-01-30T09:42:35;18.57;;;5.97;;
19235;SDS011;9752;54.270;12.470;2023-01-30T09:47:51;8.43;;;5.20;;
19235;SDS011;9752;54.270;12.470;2023-01-30T09:53:08;15.97;;;5.80;;
19235;SDS011;9752;54.270;12.470;2023-01-30T09:58:17;12.30;;;4.67;;
19235;SDS011;9752;54.270;12.470;2023-01-30T10:03:22;15.67;;;5.47;;
19235;SDS011;9752;54.270;12.470;2023-01-30T10:08:41;12.90;;;6.90;;
19235;SDS011;9752;54.270;12.470;2023-01-30T10:13:55;10.47;;;4.70;;
19235;SDS011;9752;54.270;12.470;2023-01-30T10:19:26;7.30;;;4.80;;
19235;SDS011;9752;54.270;12.470;2023-01-30T10:24:43;9.90;;;4.50;;
19235;SDS011;9752;54.270;12.470;2023-01-30T10:29:57;14.63;;;5.60;;
19235;SDS011;9752;54.270;12.470;2023-01-30T10:35:03;9.47;;;5.50;;
19235;SDS011;9752;54.270;12.470;2023-01-30T10:40:17;9.27;;;4.87;;
19235;SDS011;9752;54.270;12.470;2023-01-30T10:45:26;6.27;;;4.73;;
19235;SDS011;9752;54.270;12.470;2023-01-30T10:50:33;6.37;;;5.13;;
19235;SDS011;9752;54.270;12.470;2023-01-30T10:55:47;6.50;;;6.00;;
19235;SDS011;9752;54.270;12.470;2023-01-30T11:00:54;11.60;;;6.13;;
19235;SDS011;9752;54.270;12.470;2023-01-30T11:06:00;9.07;;;5.40;;
19235;SDS011;9752;54.270;12.470;2023-01-30T11:11:20;9.73;;;5.10;;
19235;SDS011;9752;54.270;12.470;2023-01-30T11:16:25;15.13;;;7.13;;
19235;SDS011;9752;54.270;12.470;2023-01-30T11:21:28;9.70;;;6.07;;
19235;SDS011;9752;54.270;12.470;2023-01-30T11:26:33;11.83;;;7.67;;
19235;SDS011;9752;54.270;12.470;2023-01-30T11:31:38;14.17;;;7.43;;
19235;SDS011;9752;54.270;12.470;2023-01-30T11:36:40;13.50;;;7.07;;
19235;SDS011;9752;54.270;12.470;2023-01-30T11:41:53;17.53;;;7.53;;
19235;SDS011;9752;54.270;12.470;2023-01-30T11:46:58;15.67;;;7.80;;
19235;SDS011;9752;54.270;12.470;2023-01-30T11:52:02;18.77;;;7.80;;
19235;SDS011;9752;54.270;12.470;2023-01-30T11:57:08;18.10;;;7.63;;
19235;SDS011;9752;54.270;12.470;2023-01-30T12:02:14;24.17;;;8.50;;
19235;SDS011;9752;54.270;12.470;2023-01-30T12:07:21;26.57;;;8.13;;
19235;SDS011;9752;54.270;12.470;2023-01-30T12:12:29;20.20;;;8.63;;
19235;SDS011;9752;54.270;12.470;2023-01-30T12:17:34;17.27;;;6.83;;
19235;SDS011;9752;54.270;12.470;2023-01-30T12:22:43;20.53;;;8.83;;
19235;SDS011;9752;54.270;12.470;2023-01-30T12:27:54;23.10;;;7.77;;
19235;SDS011;9752;54.270;12.470;2023-01-30T12:33:00;18.83;;;7.87;;
19235;SDS011;9752;54.270;12.470;2023-01-30T12:38:05;11.97;;;5.77;;
19235;SDS011;9752;54.270;12.470;2023-01-30T12:43:21;11.60;;;6.13;;
19235;SDS011;9752;54.270;12.470;2023-01-30T12:48:42;12.20;;;5.50;;
19235;SDS011;9752;54.270;12.470;2023-01-30T12:53:57;6.30;;;5.40;;
19235;SDS011;9752;54.270;12.470;2023-01-30T12:59:10;19.03;;;6.17;;
19235;SDS011;9752;54.270;12.470;2023-01-30T13:04:22;13.23;;;6.10;;
19235;SDS011;9752;54.270;12.470;2023-01-30T13:15:15;27.67;;;7.47;;
19235;SDS011;9752;54.270;12.470;2023-01-30T13:20:27;11.80;;;6.13;;
19235;SDS011;9752;54.270;12.470;2023-01-30T13:25:41;23.90;;;6.80;;
19235;SDS011;9752;54.270;12.470;2023-01-30T13:30:52;17.20;;;5.60;;
19235;SDS011;9752;54.270;12.470;2023-01-30T13:36:00;21.20;;;6.73;;
19235;SDS011;9752;54.270;12.470;2023-01-30T13:41:08;13.83;;;7.27;;
19235;SDS011;9752;54.270;12.470;2023-01-30T13:46:16;22.50;;;8.43;;
19235;SDS011;9752;54.270;12.470;2023-01-30T13:51:31;21.77;;;8.77;;
19235;SDS011;9752;54.270;12.470;2023-01-30T13:56:43;17.13;;;8.67;;
19235;SDS011;9752;54.270;12.470;2023-01-30T14:02:07;12.03;;;8.00;;
19235;SDS011;9752;54.270;12.470;2023-01-30T14:07:19;16.60;;;8.60;;
19235;SDS011;9752;54.270;12.470;2023-01-30T14:12:24;19.70;;;7.90;;
19235;SDS011;9752;54.270;12.470;2023-01-30T14:17:34;14.77;;;7.07;;
19235;SDS011;9752;54.270;12.470;2023-01-30T14:22:38;23.37;;;10.43;;
19235;SDS011;9752;54.270;12.470;2023-01-30T14:27:48;11.40;;;7.47;;
19235;SDS011;9752;54.270;12.470;2023-01-30T14:32:54;19.57;;;8.30;;
19235;SDS011;9752;54.270;12.470;2023-01-30T14:48:51;20.07;;;8.83;;
19235;SDS011;9752;54.270;12.470;2023-01-30T14:53:57;18.27;;;7.70;;
19235;SDS011;9752;54.270;12.470;2023-01-30T14:59:02;21.70;;;7.63;;
19235;SDS011;9752;54.270;12.470;2023-01-30T15:04:11;14.77;;;7.30;;
19235;SDS011;9752;54.270;12.470;2023-01-30T15:09:16;19.37;;;8.00;;
19235;SDS011;9752;54.270;12.470;2023-01-30T15:14:19;15.53;;;6.80;;
19235;SDS011;9752;54.270;12.470;2023-01-30T15:19:42;16.93;;;7.67;;
19235;SDS011;9752;54.270;12.470;2023-01-30T15:30:23;14.73;;;8.97;;
19235;SDS011;9752;54.270;12.470;2023-01-30T15:35:43;19.83;;;8.73;;
19235;SDS011;9752;54.270;12.470;2023-01-30T15:40:45;17.77;;;8.63;;
19235;SDS011;9752;54.270;12.470;2023-01-30T15:45:50;17.10;;;9.80;;
19235;SDS011;9752;54.270;12.470;2023-01-30T15:51:07;21.63;;;7.83;;
19235;SDS011;9752;54.270;12.470;2023-01-30T15:56:15;17.57;;;8.33;;
19235;SDS011;9752;54.270;12.470;2023-01-30T16:01:20;24.00;;;9.40;;
19235;SDS011;9752;54.270;12.470;2023-01-30T16:06:28;17.97;;;8.97;;
19235;SDS011;9752;54.270;12.470;2023-01-30T16:11:35;16.77;;;8.53;;
19235;SDS011;9752;54.270;12.470;2023-01-30T16:16:39;23.67;;;10.47;;
19235;SDS011;9752;54.270;12.470;2023-01-30T16:21:44;30.37;;;9.97;;
19235;SDS011;9752;54.270;12.470;2023-01-30T16:26:47;27.87;;;10.03;;
19235;SDS011;9752;54.270;12.470;2023-01-30T16:31:53;35.63;;;9.70;;
19235;SDS011;9752;54.270;12.470;2023-01-30T16:36:56;30.57;;;12.43;;
19235;SDS011;9752;54.270;12.470;2023-01-30T16:42:03;31.03;;;13.43;;
19235;SDS011;9752;54.270;12.470;2023-01-30T16:47:22;26.47;;;11.63;;
19235;SDS011;9752;54.270;12.470;2023-01-30T16:52:29;35.93;;;13.03;;
19235;SDS011;9752;54.270;12.470;2023-01-30T16:57:36;35.73;;;13.00;;
19235;SDS011;9752;54.270;12.470;2023-01-30T17:02:41;36.40;;;13.73;;
19235;SDS011;9752;54.270;12.470;2023-01-30T17:07:52;38.13;;;14.07;;
19235;SDS011;9752;54.270;12.470;2023-01-30T17:12:55;39.67;;;14.27;;
19235;SDS011;9752;54.270;12.470;2023-01-30T17:17:58;45.27;;;15.00;;
19235;SDS011;9752;54.270;12.470;2023-01-30T17:23:02;36.17;;;14.30;;
19235;SDS011;9752;54.270;12.470;2023-01-30T17:28:09;26.80;;;13.07;;
19235;SDS011;9752;54.270;12.470;2023-01-30T17:33:20;40.60;;;14.23;;
19235;SDS011;9752;54.270;12.470;2023-01-30T17:38:23;39.70;;;13.57;;
19235;SDS011;9752;54.270;12.470;2023-01-30T17:43:25;37.20;;;14.00;;
19235;SDS011;9752;54.270;12.470;2023-01-30T17:48:26;37.70;;;14.20;;
19235;SDS011;9752;54.270;12.470;2023-01-30T17:53:29;35.50;;;14.50;;
19235;SDS011;9752;54.270;12.470;2023-01-30T17:58:31;33.40;;;14.10;;
19235;SDS011;9752;54.270;12.470;2023-01-30T18:03:33;28.23;;;12.70;;
19235;SDS011;9752;54.270;12.470;2023-01-30T18:08:36;31.40;;;14.30;;
19235;SDS011;9752;54.270;12.470;2023-01-30T18:13:37;38.60;;;16.43;;
19235;SDS011;9752;54.270;12.470;2023-01-30T18:18:39;28.70;;;14.77;;
19235;SDS011;9752;54.270;12.470;2023-01-30T18:23:42;30.40;;;12.77;;
19235;SDS011;9752;54.270;12.470;2023-01-30T18:28:44;43.90;;;14.70;;
19235;SDS011;9752;54.270;12.470;2023-01-30T18:33:46;40.83;;;13.47;;
19235;SDS011;9752;54.270;12.470;2023-01-30T18:38:49;30.70;;;13.30;;
19235;SDS011;9752;54.270;12.470;2023-01-30T18:43:53;31.27;;;13.47;;
19235;SDS011;9752;54.270;12.470;2023-01-30T18:48:55;22.87;;;12.77;;
19235;SDS011;9752;54.270;12.470;2023-01-30T18:53:59;27.60;;;13.03;;
19235;SDS011;9752;54.270;12.470;2023-01-30T18:59:02;31.73;;;12.47;;
19235;SDS011;9752;54.270;12.470;2023-01-30T19:04:06;24.67;;;11.80;;
19235;SDS011;9752;54.270;12.470;2023-01-30T19:09:12;21.27;;;12.90;;
19235;SDS011;9752;54.270;12.470;2023-01-30T19:14:16;24.17;;;12.87;;
19235;SDS011;9752;54.270;12.470;2023-01-30T19:19:18;13.90;;;11.20;;
19235;SDS011;9752;54.270;12.470;2023-01-30T19:24:21;21.73;;;12.23;;
19235;SDS011;9752;54.270;12.470;2023-01-30T19:29:23;18.03;;;11.33;;
19235;SDS011;9752;54.270;12.470;2023-01-30T19:34:25;21.23;;;12.57;;
19235;SDS011;9752;54.270;12.470;2023-01-30T19:39:28;18.90;;;12.60;;
19235;SDS011;9752;54.270;12.470;2023-01-30T19:44:30;27.67;;;14.23;;
19235;SDS011;9752;54.270;12.470;2023-01-30T19:49:31;18.63;;;12.10;;
19235;SDS011;9752;54.270;12.470;2023-01-30T19:54:34;18.80;;;11.53;;
19235;SDS011;9752;54.270;12.470;2023-01-30T19:59:36;20.83;;;10.57;;
19235;SDS011;9752;54.270;12.470;2023-01-30T20:04:38;17.97;;;12.10;;
19235;SDS011;9752;54.270;12.470;2023-01-30T20:09:41;28.43;;;11.13;;
19235;SDS011;9752;54.270;12.470;2023-01-30T20:14:43;21.70;;;12.17;;
19235;SDS011;9752;54.270;12.470;2023-01-30T20:19:45;27.97;;;11.73;;
19235;SDS011;9752;54.270;12.470;2023-01-30T20:24:48;25.03;;;12.63;;
19235;SDS011;9752;54.270;12.470;2023-01-30T20:29:49;19.93;;;10.97;;
19235;SDS011;9752;54.270;12.470;2023-01-30T20:34:51;19.17;;;11.53;;
19235;SDS011;9752;54.270;12.470;2023-01-30T20:39:54;26.23;;;12.43;;
19235;SDS011;9752;54.270;12.470;2023-01-30T20:44:56;17.93;;;11.87;;
19235;SDS011;9752;54.270;12.470;2023-01-30T20:49:58;15.77;;;11.07;;
19235;SDS011;9752;54.270;12.470;2023-01-30T20:55:01;24.93;;;12.80;;
19235;SDS011;9752;54.270;12.470;2023-01-30T21:00:03;17.17;;;11.93;;
19235;SDS011;9752;54.270;12.470;2023-01-30T21:05:06;22.67;;;13.60;;
19235;SDS011;9752;54.270;12.470;2023-01-30T21:10:10;17.90;;;12.17;;
19235;SDS011;9752;54.270;12.470;2023-01-30T21:15:12;15.50;;;12.60;;
19235;SDS011;9752;54.270;12.470;2023-01-30T21:20:13;22.47;;;12.93;;
19235;SDS011;9752;54.270;12.470;2023-01-30T21:25:17;21.60;;;13.03;;
19235;SDS011;9752;54.270;12.470;2023-01-30T21:30:20;24.23;;;12.27;;
19235;SDS011;9752;54.270;12.470;2023-01-30T21:35:22;32.33;;;12.53;;
19235;SDS011;9752;54.270;12.470;2023-01-30T21:40:25;20.47;;;12.97;;
19235;SDS011;9752;54.270;12.470;2023-01-30T21:45:44;25.33;;;13.20;;
19235;SDS011;9752;54.270;12.470;2023-01-30T21:50:45;20.33;;;11.73;;
19235;SDS011;9752;54.270;12.470;2023-01-30T21:55:49;22.87;;;13.03;;
19235;SDS011;9752;54.270;12.470;2023-01-30T22:00:51;22.03;;;13.90;;
19235;SDS011;9752;54.270;12.470;2023-01-30T22:05:53;24.40;;;13.40;;
19235;SDS011;9752;54.270;12.470;2023-01-30T22:11:06;24.47;;;12.47;;
19235;SDS011;9752;54.270;12.470;2023-01-30T22:16:09;25.50;;;12.87;;
19235;SDS011;9752;54.270;12.470;2023-01-30T22:21:13;23.17;;;12.03;;
19235;SDS011;9752;54.270;12.470;2023-01-30T22:26:18;20.37;;;12.10;;
19235;SDS011;9752;54.270;12.470;2023-01-30T22:31:21;23.87;;;13.83;;
19235;SDS011;9752;54.270;12.470;2023-01-30T22:36:24;20.97;;;13.73;;
19235;SDS011;9752;54.270;12.470;2023-01-30T22:41:29;34.73;;;14.13;;
19235;SDS011;9752;54.270;12.470;2023-01-30T22:46:34;25.53;;;12.53;;
19235;SDS011;9752;54.270;12.470;2023-01-30T22:51:38;24.97;;;12.20;;
19235;SDS011;9752;54.270;12.470;2023-01-30T22:56:44;24.80;;;11.97;;
19235;SDS011;9752;54.270;12.470;2023-01-30T23:01:47;17.93;;;13.00;;
19235;SDS011;9752;54.270;12.470;2023-01-30T23:06:50;22.27;;;12.53;;
19235;SDS011;9752;54.270;12.470;2023-01-30T23:11:54;22.23;;;11.30;;
19235;SDS011;9752;54.270;12.470;2023-01-30T23:17:15;21.20;;;13.63;;
19235;SDS011;9752;54.270;12.470;2023-01-30T23:22:34;24.37;;;11.73;;
19235;SDS011;9752;54.270;12.470;2023-01-30T23:27:37;25.70;;;12.53;;
19235;SDS011;9752;54.270;12.470;2023-01-30T23:32:39;22.03;;;11.83;;
19235;SDS011;9752;54.270;12.470;2023-01-30T23:37:40;23.00;;;11.63;;
19235;SDS011;9752;54.270;12.470;2023-01-30T23:43:01;22.60;;;12.27;;
19235;SDS011;9752;54.270;12.470;2023-01-30T23:48:02;13.87;;;11.67;;
19235;SDS011;9752;54.270;12.470;2023-01-30T23:53:05;14.03;;;10.67;;
19235;SDS011;9752;54.270;12.470;2023-01-30T23:58:09;21.93;;;12.50;;
